Time;durP1;ratioP1;P1;durP2;ratioP2;P2;SDS_P1;SDS_P2;PMS_P1;PMS_P2;Temp;Humidity;BMP_temperature;BMP_pressure;BME280_temperature;BME280_humidity;BME280_pressure;Samples;Min_cycle;Max_cycle;Signal;HPM_P1;HPM_P2
2023/02/01 00:01:41;;;;;;;18.30;2.90;;;5.00;99.90;;;;;;5008095;28;20641;-71
2023/02/01 00:04:07;;;;;;;23.27;3.10;;;5.00;99.90;;;;;;5007126;28;20034;-72
2023/02/01 00:06:32;;;;;;;9.95;2.42;;;5.00;99.90;;;;;;5007418;28;20582;-71
2023/02/01 00:08:58;;;;;;;8.07;1.50;;;5.10;99.90;;;;;;5007255;28;20052;-71
2023/02/01 00:11:24;;;;;;;21.15;3.15;;;5.00;99.90;;;;;;5005875;28;20042;-71
2023/02/01 00:13:50;;;;;;;17.08;2.30;;;5.10;99.90;;;;;;5007190;28;20096;-70
2023/02/01 00:16:19;;;;;;;12.73;2.10;;;5.10;99.90;;;;;;5006345;28;20048;-71
2023/02/01 00:18:46;;;;;;;19.08;3.00;;;5.10;99.90;;;;;;5007711;28;20804;-71
2023/02/01 00:21:13;;;;;;;10.50;1.73;;;5.20;99.90;;;;;;5007459;28;20042;-71
2023/02/01 00:23:39;;;;;;;13.50;2.33;;;5.20;99.90;;;;;;5007329;28;20038;-71
2023/02/01 00:26:06;;;;;;;18.13;2.60;;;5.30;99.90;;;;;;5008234;28;20698;-71
2023/02/01 00:28:32;;;;;;;12.70;2.50;;;5.30;99.90;;;;;;5007374;28;20050;-70
2023/02/01 00:31:03;;;;;;;14.80;3.45;;;5.40;99.90;;;;;;5007116;28;20040;-70
2023/02/01 00:33:30;;;;;;;19.38;3.00;;;5.50;99.90;;;;;;5006940;28;20476;-70
2023/02/01 00:36:04;;;;;;;17.95;2.35;;;5.50;99.90;;;;;;5007217;28;20038;-71
2023/02/01 00:38:30;;;;;;;14.90;2.15;;;5.60;99.90;;;;;;5003385;28;20030;-71
2023/02/01 00:41:04;;;;;;;18.83;4.10;;;5.70;99.90;;;;;;5005753;28;20042;-71
2023/02/01 00:43:31;;;;;;;14.75;3.20;;;5.70;99.90;;;;;;5006897;28;20125;-71
2023/02/01 00:45:56;;;;;;;48.30;2.08;;;5.80;99.90;;;;;;5005974;28;20038;-71
2023/02/01 00:48:22;;;;;;;14.68;2.72;;;5.70;99.90;;;;;;5007345;28;20034;-71
2023/02/01 00:50:47;;;;;;;21.17;2.47;;;5.70;99.90;;;;;;5007453;28;20033;-72
2023/02/01 00:53:13;;;;;;;21.15;2.45;;;5.70;99.90;;;;;;5006679;28;20514;-71
2023/02/01 00:55:38;;;;;;;20.80;3.38;;;5.80;99.90;;;;;;5005576;28;20041;-70
2023/02/01 00:58:05;;;;;;;15.55;1.90;;;5.80;99.90;;;;;;5008458;28;20087;-71
2023/02/01 01:00:32;;;;;;;13.00;2.05;;;5.80;99.90;;;;;;5010701;28;20041;-71
2023/02/01 01:02:58;;;;;;;19.42;2.55;;;5.80;99.90;;;;;;5010866;28;20080;-71
2023/02/01 01:05:24;;;;;;;10.82;1.60;;;5.90;99.90;;;;;;5005364;28;20030;-70
2023/02/01 01:07:49;;;;;;;8.35;1.50;;;5.80;99.90;;;;;;5010271;28;20045;-71
2023/02/01 01:10:15;;;;;;;8.27;1.65;;;5.80;99.90;;;;;;5011068;28;20437;-71
2023/02/01 01:12:41;;;;;;;21.65;1.65;;;5.80;99.90;;;;;;5010874;28;20041;-70
2023/02/01 01:15:07;;;;;;;10.90;2.08;;;5.80;99.90;;;;;;5010912;28;20108;-71
2023/02/01 01:17:33;;;;;;;19.00;1.85;;;5.80;99.90;;;;;;5010705;28;20068;-71
2023/02/01 01:19:58;;;;;;;13.65;1.67;;;5.90;99.90;;;;;;5010399;28;20064;-71
2023/02/01 01:22:24;;;;;;;18.23;3.47;;;5.90;99.90;;;;;;5010682;28;20512;-71
2023/02/01 01:24:50;;;;;;;15.95;2.33;;;5.90;99.90;;;;;;5010585;28;20073;-71
2023/02/01 01:27:15;;;;;;;11.95;1.98;;;5.90;99.90;;;;;;5011600;28;20029;-70
2023/02/01 01:29:41;;;;;;;12.38;1.73;;;5.90;99.90;;;;;;5011103;28;20482;-71
2023/02/01 01:32:06;;;;;;;10.00;1.30;;;5.90;99.90;;;;;;5009002;28;20042;-71
2023/02/01 01:34:32;;;;;;;18.25;2.30;;;6.00;99.90;;;;;;5010471;28;20042;-70
2023/02/01 01:36:58;;;;;;;21.30;2.17;;;6.00;99.90;;;;;;5009998;28;20037;-72
2023/02/01 01:39:23;;;;;;;13.35;1.88;;;6.00;99.90;;;;;;5009021;28;20038;-70
2023/02/01 01:41:49;;;;;;;14.27;2.08;;;6.00;99.90;;;;;;5009391;28;20073;-70
2023/02/01 01:44:52;;;;;;;10.73;3.17;;;6.10;99.90;;;;;;5008994;28;20111;-70
2023/02/01 01:47:17;;;;;;;13.93;1.73;;;6.10;99.90;;;;;;5008463;28;20129;-71
2023/02/01 01:49:43;;;;;;;20.33;3.00;;;6.10;99.90;;;;;;5007577;28;20097;-71
2023/02/01 01:52:09;;;;;;;11.45;1.85;;;6.20;99.90;;;;;;5010056;28;20379;-71
2023/02/01 01:54:40;;;;;;;12.00;2.35;;;6.30;99.90;;;;;;5009849;28;20116;-70
2023/02/01 01:57:11;;;;;;;17.02;2.38;;;6.30;99.90;;;;;;5009673;28;20038;-72
2023/02/01 01:59:41;;;;;;;16.23;2.28;;;6.40;99.90;;;;;;5013245;28;20061;-70
2023/02/01 02:02:07;;;;;;;17.27;2.08;;;6.50;99.90;;;;;;5006997;28;20061;-71
2023/02/01 02:04:35;;;;;;;16.42;2.80;;;6.50;99.90;;;;;;5009568;28;20030;-71
2023/02/01 02:07:14;;;;;;;13.75;2.45;;;6.50;99.90;;;;;;5012145;28;20037;-71
2023/02/01 02:09:40;;;;;;;8.80;1.75;;;6.60;99.90;;;;;;5005696;28;20034;-72
2023/02/01 02:12:05;;;;;;;12.52;1.95;;;6.60;99.90;;;;;;5009298;28;20157;-72
2023/02/01 02:14:33;;;;;;;19.10;2.83;;;6.60;99.90;;;;;;5009312;28;20577;-71
2023/02/01 02:17:26;;;;;;;13.38;2.40;;;6.70;99.90;;;;;;5011384;28;20041;-71
2023/02/01 02:20:13;;;;;;;13.25;1.92;;;6.70;99.90;;;;;;4986213;28;20062;-71
2023/02/01 02:22:57;;;;;;;19.17;2.58;;;6.80;99.90;;;;;;4987981;28;20131;-71
2023/02/01 02:25:52;;;;;;;19.05;3.25;;;6.70;99.90;;;;;;5000905;28;20039;-71
2023/02/01 02:28:58;;;;;;;15.25;2.38;;;6.80;99.90;;;;;;4979957;28;20042;-71
2023/02/01 02:31:33;;;;;;;24.58;3.17;;;6.80;99.90;;;;;;4985955;28;20033;-71
2023/02/01 02:34:16;;;;;;;12.80;2.53;;;6.90;99.90;;;;;;4987896;28;20034;-72
2023/02/01 02:37:09;;;;;;;30.17;2.83;;;6.80;99.90;;;;;;4989688;28;20038;-72
2023/02/01 02:40:07;;;;;;;21.27;2.20;;;6.80;99.90;;;;;;4986274;28;20053;-71
2023/02/01 02:47:23;;;;;;;17.98;1.88;;;6.90;99.90;;;;;;4988324;28;20097;-71
2023/02/01 02:49:07;;;;;;;10.77;2.10;;;7.00;99.90;;;;;;4986255;28;20038;-72
2023/02/01 02:54:50;;;;;;;16.83;1.92;;;7.00;99.90;;;;;;4985702;28;20100;-71
2023/02/01 03:05:39;;;;;;;13.38;2.60;;;7.10;99.90;;;;;;4988586;28;20104;-70
2023/02/01 03:08:12;;;;;;;23.13;2.58;;;7.10;99.90;;;;;;4987505;28;20304;-70
2023/02/01 03:11:14;;;;;;;11.25;3.22;;;7.00;99.90;;;;;;4988734;28;20058;-71
2023/02/01 03:13:51;;;;;;;11.43;2.70;;;7.00;99.90;;;;;;4991402;28;20038;-70
2023/02/01 03:16:28;;;;;;;14.68;2.35;;;7.00;99.90;;;;;;5008582;28;20034;-71
2023/02/01 03:19:02;;;;;;;19.70;2.33;;;6.90;99.90;;;;;;5005133;28;20038;-71
2023/02/01 03:21:37;;;;;;;22.13;2.33;;;6.90;99.90;;;;;;5007595;28;20617;-71
2023/02/01 03:24:32;;;;;;;9.90;1.60;;;6.80;99.90;;;;;;4998800;28;20030;-70
2023/02/01 03:27:12;;;;;;;10.18;1.73;;;6.70;99.90;;;;;;5009345;28;20084;-71
2023/02/01 03:29:50;;;;;;;20.13;2.92;;;6.60;99.90;;;;;;5007049;28;20038;-70
2023/02/01 03:32:16;;;;;;;11.43;1.77;;;6.50;99.90;;;;;;5008268;28;20045;-70
2023/02/01 03:34:42;;;;;;;17.60;1.70;;;6.50;99.90;;;;;;5004938;28;20042;-69
2023/02/01 03:37:12;;;;;;;16.40;1.90;;;6.50;99.90;;;;;;5004315;28;20038;-71
2023/02/01 03:39:52;;;;;;;19.15;2.13;;;6.50;99.90;;;;;;5011214;28;20038;-71
2023/02/01 03:42:27;;;;;;;15.02;2.15;;;6.50;99.90;;;;;;5005382;28;20043;-71
2023/02/01 03:45:11;;;;;;;17.02;3.65;;;6.50;99.90;;;;;;5007651;28;20037;-71
2023/02/01 03:47:43;;;;;;;11.63;2.05;;;6.40;99.90;;;;;;5007056;28;20049;-70
2023/02/01 03:50:14;;;;;;;17.77;2.40;;;6.40;99.90;;;;;;5006392;28;20041;-71
2023/02/01 03:52:44;;;;;;;10.82;1.80;;;6.40;99.90;;;;;;5007710;28;20053;-71
2023/02/01 03:55:12;;;;;;;10.32;1.75;;;6.50;99.90;;;;;;5007506;28;20185;-71
2023/02/01 03:57:43;;;;;;;13.13;2.33;;;6.50;99.90;;;;;;5003457;28;20073;-71
2023/02/01 04:00:21;;;;;;;19.48;2.45;;;6.50;99.90;;;;;;5007778;28;20037;-72
2023/02/01 04:02:47;;;;;;;8.95;1.98;;;6.60;99.90;;;;;;5004229;28;20099;-71
2023/02/01 04:05:13;;;;;;;14.13;3.03;;;6.60;99.90;;;;;;5006123;28;20031;-71
2023/02/01 04:07:39;;;;;;;15.55;2.22;;;6.70;99.90;;;;;;5010372;28;20398;-71
2023/02/01 04:10:05;;;;;;;15.02;2.60;;;6.70;99.90;;;;;;5008831;28;20270;-71
2023/02/01 04:12:30;;;;;;;13.05;2.08;;;6.80;99.90;;;;;;5007574;28;20034;-70
2023/02/01 04:14:56;;;;;;;15.70;2.38;;;6.90;99.90;;;;;;5006777;28;20034;-71
2023/02/01 04:17:21;;;;;;;15.30;2.58;;;6.90;99.90;;;;;;5007374;28;20599;-72
2023/02/01 04:19:47;;;;;;;14.07;1.80;;;6.90;99.90;;;;;;5007999;28;20038;-70
2023/02/01 04:22:13;;;;;;;11.02;2.58;;;6.90;99.90;;;;;;4999395;28;20410;-71
2023/02/01 04:24:38;;;;;;;9.43;1.83;;;7.00;99.90;;;;;;5007096;28;20045;-71
2023/02/01 04:27:04;;;;;;;19.38;2.40;;;7.00;99.90;;;;;;5010661;28;20038;-72
2023/02/01 04:29:30;;;;;;;11.73;2.17;;;7.00;99.90;;;;;;5006960;28;20038;-70
2023/02/01 04:31:55;;;;;;;14.80;2.30;;;6.90;99.90;;;;;;5007217;28;20482;-71
2023/02/01 04:34:22;;;;;;;10.07;2.90;;;6.90;99.90;;;;;;5007380;28;20034;-71
2023/02/01 04:36:48;;;;;;;16.05;2.72;;;6.90;99.90;;;;;;5007280;28;20486;-71
2023/02/01 04:39:13;;;;;;;9.75;1.45;;;6.90;99.90;;;;;;5007363;28;20049;-72
2023/02/01 04:41:39;;;;;;;11.05;1.52;;;6.80;99.90;;;;;;5008713;28;20132;-71
2023/02/01 04:44:05;;;;;;;19.98;1.92;;;6.80;99.90;;;;;;5007307;28;20439;-71
2023/02/01 04:46:30;;;;;;;16.02;3.08;;;6.70;99.90;;;;;;5006810;28;20045;-70
2023/02/01 04:48:56;;;;;;;16.15;1.92;;;6.70;99.90;;;;;;5007506;28;20038;-71
2023/02/01 04:51:21;;;;;;;15.93;2.38;;;6.70;99.90;;;;;;5007211;28;20044;-70
2023/02/01 04:53:47;;;;;;;15.23;1.88;;;6.70;99.90;;;;;;5007312;28;20508;-71
2023/02/01 04:56:13;;;;;;;7.45;1.58;;;6.60;99.90;;;;;;5006986;28;20030;-71
2023/02/01 04:58:38;;;;;;;15.43;1.70;;;6.60;99.90;;;;;;5007150;28;20092;-71
2023/02/01 05:01:05;;;;;;;16.25;3.30;;;6.70;99.90;;;;;;5006867;28;20044;-71
2023/02/01 05:03:34;;;;;;;13.40;1.83;;;6.60;99.90;;;;;;5006963;28;20038;-70
2023/02/01 05:06:00;;;;;;;11.45;3.15;;;6.50;99.90;;;;;;5007004;28;20121;-71
2023/02/01 05:08:26;;;;;;;16.73;1.70;;;6.40;99.90;;;;;;5005058;28;20125;-71
2023/02/01 05:10:52;;;;;;;19.67;2.83;;;6.40;99.90;;;;;;5006848;28;20053;-70
2023/02/01 05:16:02;;;;;;;17.55;2.42;;;6.40;99.90;;;;;;5007057;28;20084;-71
2023/02/01 05:18:28;;;;;;;19.00;3.42;;;6.40;99.90;;;;;;5006717;28;20494;-71
2023/02/01 05:20:53;;;;;;;14.77;1.98;;;6.40;99.90;;;;;;5007387;28;20026;-71
2023/02/01 05:23:19;;;;;;;7.22;1.80;;;6.40;99.90;;;;;;5006760;28;20100;-70
2023/02/01 05:25:45;;;;;;;14.50;2.85;;;6.30;99.90;;;;;;5010037;28;20036;-71
2023/02/01 05:28:10;;;;;;;18.42;1.60;;;6.30;99.90;;;;;;5003004;28;20042;-71
2023/02/01 05:30:36;;;;;;;10.00;2.35;;;6.20;99.90;;;;;;5006338;28;20061;-71
2023/02/01 05:33:03;;;;;;;9.38;2.20;;;6.20;99.90;;;;;;5000259;28;20038;-71
2023/02/01 05:35:28;;;;;;;12.45;1.58;;;6.30;99.90;;;;;;5001452;28;20402;-69
2023/02/01 05:37:54;;;;;;;15.82;2.00;;;6.30;99.90;;;;;;5001316;28;20034;-71
2023/02/01 05:40:19;;;;;;;15.73;1.30;;;6.30;99.90;;;;;;4996995;28;20041;-71
2023/02/01 05:42:45;;;;;;;13.88;2.30;;;6.40;99.90;;;;;;5008757;28;20045;-72
2023/02/01 05:45:11;;;;;;;15.18;3.67;;;6.40;99.90;;;;;;5004753;28;20040;-70
2023/02/01 05:47:36;;;;;;;14.93;2.50;;;6.40;99.90;;;;;;5003479;28;20437;-71
2023/02/01 05:50:04;;;;;;;14.55;2.67;;;6.50;99.90;;;;;;5004658;28;20033;-72
2023/02/01 05:52:29;;;;;;;23.52;4.70;;;6.50;99.90;;;;;;5009905;28;20030;-72
2023/02/01 05:54:55;;;;;;;16.15;2.08;;;6.50;99.90;;;;;;5009942;28;20038;-71
2023/02/01 05:57:20;;;;;;;10.95;2.20;;;6.50;99.90;;;;;;5010233;28;20387;-71
2023/02/01 05:59:47;;;;;;;20.50;3.97;;;6.50;99.90;;;;;;5010026;28;20030;-71
2023/02/01 06:02:13;;;;;;;18.63;2.05;;;6.50;99.90;;;;;;5010455;28;20022;-71
2023/02/01 06:04:39;;;;;;;12.43;2.05;;;6.40;99.90;;;;;;5020631;28;20042;-72
2023/02/01 06:07:06;;;;;;;10.93;2.53;;;6.40;99.90;;;;;;5009893;28;20033;-71
2023/02/01 06:09:32;;;;;;;15.00;2.10;;;6.40;99.90;;;;;;5006770;28;20136;-71
2023/02/01 06:11:58;;;;;;;24.40;3.33;;;6.40;99.90;;;;;;5009255;28;20037;-72
2023/02/01 06:14:24;;;;;;;9.00;1.63;;;6.30;99.90;;;;;;5008483;28;20038;-73
2023/02/01 06:16:49;;;;;;;13.80;1.83;;;6.30;99.90;;;;;;5009277;28;20033;-71
2023/02/01 06:19:15;;;;;;;13.27;1.50;;;6.30;99.90;;;;;;5008520;28;20076;-71
2023/02/01 06:21:41;;;;;;;17.73;1.95;;;6.30;99.90;;;;;;5009782;28;20520;-71
2023/02/01 06:24:06;;;;;;;16.15;2.92;;;6.30;99.90;;;;;;5013073;28;20034;-72
2023/02/01 06:26:33;;;;;;;15.82;1.80;;;6.30;99.90;;;;;;5016039;28;20762;-71
2023/02/01 06:28:58;;;;;;;15.57;1.98;;;6.40;99.90;;;;;;5012234;28;20083;-72
2023/02/01 06:31:25;;;;;;;10.25;1.75;;;6.40;99.90;;;;;;5013274;28;20121;-72
2023/02/01 06:33:51;;;;;;;11.70;2.65;;;6.40;99.90;;;;;;5012208;28;20038;-73
2023/02/01 06:36:18;;;;;;;12.02;1.98;;;6.30;99.90;;;;;;5013037;28;20034;-72
2023/02/01 06:38:44;;;;;;;18.58;3.20;;;6.40;99.90;;;;;;5013102;28;20038;-71
2023/02/01 06:41:10;;;;;;;19.30;2.42;;;6.40;99.90;;;;;;5013010;28;20044;-72
2023/02/01 06:43:37;;;;;;;14.27;2.17;;;6.40;99.90;;;;;;5009516;28;20041;-70
2023/02/01 06:46:05;;;;;;;17.75;2.55;;;6.40;99.90;;;;;;5013024;28;20041;-71
2023/02/01 06:48:32;;;;;;;12.90;2.63;;;6.40;99.90;;;;;;5012167;28;20141;-71
2023/02/01 06:50:57;;;;;;;18.55;3.25;;;6.50;99.90;;;;;;5012215;28;20030;-71
2023/02/01 06:53:23;;;;;;;7.85;1.50;;;6.50;99.90;;;;;;5011491;28;20064;-72
2023/02/01 06:55:57;;;;;;;14.25;1.83;;;6.50;99.90;;;;;;5008164;28;20556;-72
2023/02/01 06:58:23;;;;;;;9.60;1.88;;;6.50;99.90;;;;;;5007125;28;20049;-72
2023/02/01 07:00:48;;;;;;;16.45;3.10;;;6.60;99.90;;;;;;5009579;28;20030;-74
2023/02/01 07:03:14;;;;;;;16.90;2.22;;;6.60;99.90;;;;;;5009415;28;20402;-72
2023/02/01 07:05:40;;;;;;;14.55;2.00;;;6.60;99.90;;;;;;5009156;28;20048;-71
2023/02/01 07:08:05;;;;;;;19.50;3.95;;;6.60;99.90;;;;;;5009760;28;20038;-71
2023/02/01 07:10:31;;;;;;;17.60;2.95;;;6.60;99.90;;;;;;5007929;28;20133;-70
2023/02/01 07:12:57;;;;;;;8.30;1.73;;;6.60;99.90;;;;;;5006565;28;20112;-71
2023/02/01 07:15:23;;;;;;;20.25;2.45;;;6.70;99.90;;;;;;5008579;28;20467;-71
2023/02/01 07:17:49;;;;;;;15.20;1.65;;;6.70;99.90;;;;;;4999294;28;20124;-71
2023/02/01 07:20:15;;;;;;;8.27;2.53;;;6.70;99.90;;;;;;5003259;28;20033;-72
2023/02/01 07:22:41;;;;;;;9.48;2.08;;;6.80;99.90;;;;;;5007672;28;20045;-71
2023/02/01 07:25:07;;;;;;;6.50;1.52;;;6.80;99.90;;;;;;5003978;28;20520;-72
2023/02/01 07:27:36;;;;;;;16.30;2.60;;;6.80;99.90;;;;;;5004057;28;20029;-72
2023/02/01 07:30:04;;;;;;;15.98;2.35;;;6.90;99.90;;;;;;5007732;28;20038;-72
2023/02/01 07:32:30;;;;;;;7.78;1.42;;;6.90;99.90;;;;;;5006018;28;20040;-71
2023/02/01 07:34:56;;;;;;;19.80;1.80;;;6.80;99.90;;;;;;5006119;28;20034;-72
2023/02/01 07:37:21;;;;;;;8.20;1.38;;;6.80;99.90;;;;;;5004851;28;20026;-72
2023/02/01 07:39:48;;;;;;;18.45;2.30;;;6.80;99.90;;;;;;5003639;28;20092;-71
2023/02/01 07:42:13;;;;;;;10.95;2.53;;;6.70;99.90;;;;;;5002843;28;20049;-72
2023/02/01 07:44:39;;;;;;;18.58;2.50;;;6.70;99.90;;;;;;5004688;28;20064;-72
2023/02/01 07:47:04;;;;;;;15.27;2.75;;;6.70;99.90;;;;;;5019531;28;20125;-72
2023/02/01 07:49:30;;;;;;;14.27;1.98;;;6.70;99.90;;;;;;5008018;28;20049;-71
2023/02/01 07:51:55;;;;;;;16.83;3.05;;;6.70;99.90;;;;;;5005101;28;20574;-72
2023/02/01 07:54:21;;;;;;;16.17;2.33;;;6.70;99.90;;;;;;5007539;28;20080;-71
2023/02/01 07:56:47;;;;;;;18.45;2.30;;;6.80;99.90;;;;;;5007242;28;20483;-71
2023/02/01 07:59:12;;;;;;;12.43;1.67;;;6.70;99.90;;;;;;5009154;28;20095;-72
2023/02/01 08:01:38;;;;;;;6.93;1.55;;;6.70;99.90;;;;;;5007149;28;20049;-72
2023/02/01 08:04:04;;;;;;;18.00;1.98;;;6.70;99.90;;;;;;5008608;28;20041;-72
2023/02/01 08:06:33;;;;;;;17.77;1.88;;;6.70;99.90;;;;;;5001575;28;20034;-70
2023/02/01 08:08:59;;;;;;;13.13;2.25;;;6.70;99.90;;;;;;5009824;28;20048;-72
2023/02/01 08:11:25;;;;;;;8.07;1.50;;;6.60;99.90;;;;;;5009229;28;20121;-71
2023/02/01 08:13:52;;;;;;;11.25;1.70;;;6.70;99.90;;;;;;5002939;28;20088;-71
2023/02/01 08:16:19;;;;;;;14.15;2.38;;;6.60;99.90;;;;;;5008850;28;20045;-71
2023/02/01 08:18:45;;;;;;;14.35;1.88;;;6.70;99.90;;;;;;5007380;28;20045;-72
2023/02/01 08:21:24;;;;;;;11.85;2.08;;;6.70;99.90;;;;;;5008085;28;20049;-71
2023/02/01 08:23:50;;;;;;;10.18;2.40;;;6.70;99.90;;;;;;5007739;28;20037;-71
2023/02/01 08:26:24;;;;;;;10.77;2.85;;;6.70;99.90;;;;;;5009981;28;20042;-71
2023/02/01 08:28:55;;;;;;;14.75;1.90;;;6.60;99.90;;;;;;5008452;28;20042;-72
2023/02/01 08:31:23;;;;;;;14.98;2.75;;;6.60;99.90;;;;;;5008915;28;20092;-72
2023/02/01 08:33:51;;;;;;;15.73;1.90;;;6.70;99.90;;;;;;5006941;28;20033;-71
2023/02/01 08:36:17;;;;;;;13.75;2.13;;;6.70;99.90;;;;;;5003969;28;20037;-72
2023/02/01 08:38:43;;;;;;;17.08;3.67;;;6.70;99.90;;;;;;5014766;28;20037;-71
2023/02/01 08:41:12;;;;;;;11.82;1.88;;;6.80;99.90;;;;;;5012481;28;20090;-72
2023/02/01 08:43:38;;;;;;;9.65;1.63;;;6.90;99.90;;;;;;5009965;28;20117;-71
2023/02/01 08:46:05;;;;;;;14.15;1.98;;;7.00;99.90;;;;;;5005270;28;20121;-72
2023/02/01 08:48:31;;;;;;;10.00;2.10;;;7.00;99.90;;;;;;5008971;28;20069;-72
2023/02/01 08:50:57;;;;;;;17.02;2.33;;;7.10;99.90;;;;;;5008645;28;20038;-71
2023/02/01 08:53:23;;;;;;;14.98;1.38;;;7.20;99.90;;;;;;5008512;28;20037;-72
2023/02/01 08:55:49;;;;;;;13.13;2.22;;;7.20;99.90;;;;;;5006620;28;20025;-72
2023/02/01 08:58:16;;;;;;;20.65;3.70;;;7.30;99.90;;;;;;5007806;28;20053;-71
2023/02/01 09:00:44;;;;;;;15.57;2.70;;;7.40;99.90;;;;;;4998592;28;20068;-71
2023/02/01 09:03:11;;;;;;;17.40;2.35;;;7.40;99.90;;;;;;5007150;28;20030;-71
2023/02/01 09:05:36;;;;;;;10.98;2.63;;;7.50;99.90;;;;;;4994400;28;20046;-71
2023/02/01 09:08:02;;;;;;;10.48;2.28;;;7.70;99.90;;;;;;4998780;28;20039;-71
2023/02/01 09:10:28;;;;;;;12.57;1.67;;;7.70;99.90;;;;;;5012665;28;20108;-71
2023/02/01 09:12:53;;;;;;;11.80;1.80;;;7.90;99.90;;;;;;4979914;28;20113;-71
2023/02/01 09:15:19;;;;;;;9.10;1.35;;;7.90;99.90;;;;;;4976958;28;20031;-71
2023/02/01 09:17:45;;;;;;;13.20;1.70;;;8.10;99.90;;;;;;4979686;28;20360;-71
2023/02/01 09:20:11;;;;;;;17.05;1.98;;;8.30;99.90;;;;;;4977981;28;20034;-71
2023/02/01 09:22:37;;;;;;;22.02;3.88;;;8.40;99.90;;;;;;4980146;28;20093;-71
2023/02/01 09:25:02;;;;;;;7.78;1.50;;;8.50;99.90;;;;;;4985434;28;20031;-71
2023/02/01 09:27:28;;;;;;;8.07;2.38;;;8.50;99.90;;;;;;4984704;28;20038;-71
2023/02/01 09:29:54;;;;;;;13.85;1.80;;;8.50;99.90;;;;;;4984414;28;20046;-71
2023/02/01 09:32:21;;;;;;;9.93;1.58;;;8.50;99.90;;;;;;4982137;28;20046;-72
2023/02/01 09:34:48;;;;;;;13.30;2.50;;;8.50;99.90;;;;;;4984255;28;20038;-71
2023/02/01 09:37:13;;;;;;;10.32;1.77;;;8.50;99.90;;;;;;4983752;28;20040;-71
2023/02/01 09:39:39;;;;;;;10.73;1.95;;;8.40;99.90;;;;;;4979999;28;20039;-71
2023/02/01 09:42:09;;;;;;;10.15;2.67;;;8.40;99.90;;;;;;4986449;28;20754;-70
2023/02/01 09:45:04;;;;;;;16.45;2.03;;;8.50;99.90;;;;;;4980603;28;20038;-71
2023/02/01 09:47:31;;;;;;;16.33;1.90;;;8.50;99.90;;;;;;4976588;28;20054;-72
2023/02/01 09:50:19;;;;;;;11.13;1.70;;;8.50;99.90;;;;;;4984536;28;20034;-70
2023/02/01 09:53:04;;;;;;;11.82;2.28;;;8.60;99.90;;;;;;4984481;28;20177;-71
2023/02/01 09:55:50;;;;;;;9.98;1.67;;;8.60;99.90;;;;;;4980905;28;20673;-71
2023/02/01 09:58:18;;;;;;;18.65;1.45;;;8.50;99.90;;;;;;4976672;28;20557;-73
2023/02/01 10:00:54;;;;;;;13.07;1.35;;;8.50;99.90;;;;;;4980930;28;20046;-71
2023/02/01 10:03:22;;;;;;;9.95;2.28;;;8.30;99.90;;;;;;4980406;28;20038;-71
2023/02/01 10:06:02;;;;;;;14.32;1.92;;;8.30;99.90;;;;;;4979552;28;20046;-71
2023/02/01 10:08:28;;;;;;;;;;;8.20;99.90;;;;;;4990918;28;20101;-71
2023/02/01 10:10:58;;;;;;;23.50;4.65;;;8.20;99.90;;;;;;4981764;28;19922;-72
2023/02/01 10:13:39;;;;;;;15.32;3.33;;;8.10;99.90;;;;;;4991961;28;20042;-71
2023/02/01 10:16:30;;;;;;;15.80;2.50;;;8.10;99.90;;;;;;4991207;28;20041;-71
2023/02/01 10:19:20;;;;;;;17.55;1.77;;;8.00;99.90;;;;;;4983636;28;20038;-72
2023/02/01 10:21:50;;;;;;;15.23;2.00;;;7.90;99.90;;;;;;4982413;28;20035;-71
2023/02/01 10:24:56;;;;;;;10.02;1.40;;;7.80;99.90;;;;;;4983052;28;20039;-71
2023/02/01 10:27:32;;;;;;;12.60;1.60;;;7.70;99.90;;;;;;4981042;28;20041;-71
2023/02/01 10:30:03;;;;;;;10.68;1.58;;;7.70;99.90;;;;;;4979897;28;20038;-71
2023/02/01 10:32:34;;;;;;;21.77;2.45;;;7.70;99.90;;;;;;4978819;28;20665;-71
2023/02/01 10:35:02;;;;;;;;;;;7.80;99.90;;;;;;4983763;28;20136;-70
2023/02/01 10:37:34;;;;;;;9.23;1.50;;;7.90;99.90;;;;;;4989328;28;19924;-71
2023/02/01 10:40:14;;;;;;;16.20;3.55;;;7.90;99.90;;;;;;4987740;28;20436;-72
2023/02/01 10:42:40;;;;;;;8.40;1.33;;;8.00;99.90;;;;;;4987445;28;20043;-71
2023/02/01 10:45:06;;;;;;;11.65;1.70;;;8.00;99.90;;;;;;4992053;28;20047;-72
2023/02/01 10:47:32;;;;;;;12.10;1.80;;;8.00;99.90;;;;;;4987930;28;20053;-71
2023/02/01 10:50:17;;;;;;;16.55;2.67;;;8.10;99.90;;;;;;4985259;28;20467;-71
2023/02/01 10:52:46;;;;;;;11.93;1.88;;;8.10;99.90;;;;;;4986682;28;20038;-70
2023/02/01 10:55:31;;;;;;;15.63;1.48;;;8.10;99.90;;;;;;4982479;28;20043;-71
2023/02/01 10:57:59;;;;;;;13.98;2.67;;;8.10;99.90;;;;;;4981362;28;20042;-71
2023/02/01 11:00:26;;;;;;;11.30;1.85;;;8.20;99.90;;;;;;4979042;28;20031;-71
2023/02/01 11:02:54;;;;;;;14.02;1.77;;;8.30;99.90;;;;;;4979742;28;20041;-72
2023/02/01 11:05:22;;;;;;;15.35;1.85;;;8.30;99.90;;;;;;4984101;28;20034;-72
2023/02/01 11:07:59;;;;;;;8.50;1.53;;;8.40;99.90;;;;;;4992055;28;20037;-71
2023/02/01 11:10:35;;;;;;;14.85;2.63;;;8.40;99.90;;;;;;4986279;28;20415;-73
2023/02/01 11:13:03;;;;;;;14.77;2.00;;;8.40;99.90;;;;;;4984383;28;20035;-71
2023/02/01 11:15:29;;;;;;;18.92;2.35;;;8.40;99.90;;;;;;4981530;28;20069;-71
2023/02/01 11:17:56;;;;;;;18.23;3.38;;;8.30;99.90;;;;;;4976205;28;20475;-71
2023/02/01 11:20:40;;;;;;;18.48;2.00;;;8.20;99.90;;;;;;4986781;28;20031;-73
2023/02/01 11:23:19;;;;;;;16.40;2.45;;;8.10;99.90;;;;;;4980617;28;20137;-72
2023/02/01 11:25:59;;;;;;;12.18;1.95;;;7.90;99.90;;;;;;4979677;28;20041;-72
2023/02/01 11:28:32;;;;;;;18.23;2.72;;;7.90;99.90;;;;;;4985043;28;20595;-71
2023/02/01 11:31:03;;;;;;;20.13;2.10;;;7.90;99.90;;;;;;4980385;28;20043;-73
2023/02/01 11:33:35;;;;;;;16.35;2.97;;;8.00;99.90;;;;;;4983540;28;20058;-70
2023/02/01 11:36:14;;;;;;;19.20;3.10;;;8.10;99.90;;;;;;4973709;28;20046;-72
2023/02/01 11:38:54;;;;;;;19.17;3.08;;;8.20;99.90;;;;;;4978856;28;20414;-71
2023/02/01 11:41:24;;;;;;;12.10;2.88;;;8.30;99.90;;;;;;4978212;28;20027;-73
2023/02/01 11:43:55;;;;;;;19.63;3.95;;;8.40;99.90;;;;;;4980820;28;20077;-71
2023/02/01 11:46:34;;;;;;;13.88;2.45;;;8.50;99.90;;;;;;4990084;28;20793;-71
2023/02/01 11:49:20;;;;;;;12.93;1.73;;;8.50;99.90;;;;;;4978047;28;20067;-73
2023/02/01 11:52:23;;;;;;;15.30;3.35;;;8.60;99.90;;;;;;4983136;28;20066;-72
2023/02/01 11:55:08;;;;;;;16.63;3.03;;;8.60;99.90;;;;;;4979553;28;20045;-72
2023/02/01 11:57:52;;;;;;;10.05;2.20;;;8.60;99.90;;;;;;4985060;28;20038;-71
2023/02/01 12:00:44;;;;;;;15.15;2.17;;;8.60;99.90;;;;;;4978150;28;20038;-72
2023/02/01 12:03:31;;;;;;;8.52;1.35;;;8.60;99.90;;;;;;4978380;28;20113;-73
2023/02/01 12:06:03;;;;;;;8.65;1.50;;;8.80;99.90;;;;;;4976595;28;20092;-71
2023/02/01 12:08:41;;;;;;;8.13;2.80;;;8.90;99.90;;;;;;4976045;28;20083;-72
2023/02/01 12:11:12;;;;;;;14.98;1.95;;;9.00;99.90;;;;;;4980417;28;20049;-72
2023/02/01 12:14:06;;;;;;;15.70;2.00;;;9.00;99.90;;;;;;4980972;28;20053;-71
2023/02/01 12:16:45;;;;;;;14.20;3.33;;;9.10;99.90;;;;;;4980468;28;20046;-71
2023/02/01 12:19:43;;;;;;;17.13;2.03;;;9.20;99.90;;;;;;4976813;28;20453;-72
2023/02/01 12:22:30;;;;;;;13.50;1.55;;;9.30;99.90;;;;;;4982052;28;20030;-71
2023/02/01 12:25:00;;;;;;;12.82;2.38;;;9.40;99.90;;;;;;4975474;28;20092;-70
2023/02/01 12:27:56;;;;;;;11.45;2.30;;;9.40;99.90;;;;;;4976448;28;20811;-71
2023/02/01 12:30:34;;;;;;;14.63;1.55;;;9.30;99.90;;;;;;4979897;28;20118;-71
2023/02/01 12:33:14;;;;;;;22.88;2.03;;;9.40;99.90;;;;;;4981049;28;20038;-72
2023/02/01 12:35:59;;;;;;;19.10;1.50;;;9.40;99.90;;;;;;4979504;28;20117;-70
2023/02/01 12:38:45;;;;;;;9.38;1.77;;;9.40;99.90;;;;;;4975692;28;20037;-71
2023/02/01 12:41:10;;;;;;;13.38;1.85;;;9.30;99.90;;;;;;4974451;28;20035;-72
2023/02/01 12:44:17;;;;;;;15.10;1.77;;;9.30;99.90;;;;;;4979077;28;20039;-71
2023/02/01 12:47:00;;;;;;;14.63;1.90;;;9.40;99.90;;;;;;4976771;28;20161;-72
2023/02/01 12:49:45;;;;;;;11.00;1.80;;;9.50;99.90;;;;;;4978692;28;20034;-72
2023/02/01 12:52:21;;;;;;;9.93;2.17;;;9.60;99.90;;;;;;4976108;28;20026;-71
2023/02/01 12:54:53;;;;;;;10.57;1.45;;;9.70;99.90;;;;;;4977754;28;20031;-72
2023/02/01 12:57:31;;;;;;;6.85;1.35;;;9.80;99.90;;;;;;4985140;28;20803;-71
2023/02/01 13:00:01;;;;;;;18.10;2.25;;;10.00;99.90;;;;;;4984183;28;20165;-72
2023/02/01 13:02:51;;;;;;;6.65;2.42;;;10.00;99.90;;;;;;4981015;28;20184;-71
2023/02/01 13:05:24;;;;;;;9.70;1.53;;;10.10;99.90;;;;;;4979285;28;20037;-72
2023/02/01 13:08:04;;;;;;;11.15;1.60;;;10.20;99.90;;;;;;4983317;28;20282;-72
2023/02/01 13:10:30;;;;;;;13.60;1.92;;;10.10;99.90;;;;;;4980089;28;20059;-72
2023/02/01 13:13:14;;;;;;;12.20;1.95;;;10.10;99.90;;;;;;4976761;28;20069;-71
2023/02/01 13:16:03;;;;;;;15.27;2.38;;;10.00;99.90;;;;;;4979727;28;20030;-70
2023/02/01 13:18:38;;;;;;;17.33;2.75;;;9.90;99.90;;;;;;4972400;28;20061;-70
2023/02/01 13:21:08;;;;;;;6.53;1.45;;;9.90;99.90;;;;;;4978600;28;20027;-70
2023/02/01 13:23:39;;;;;;;7.00;2.75;;;9.80;99.90;;;;;;4977413;28;20027;-72
2023/02/01 13:26:05;;;;;;;15.23;2.17;;;9.70;99.90;;;;;;4978365;28;20031;-72